CheckWX is a tool to help pilots better visualize weather data.  It is not intended as a substitute for an official pre-flight weather briefing.

00:30:20 UTC

EGLL METAR
London Heathrow Airport
London, United Kingdom
Current

10 mins ago

EGLL 170020Z AUTO 32004KT 9999 FEW017 14/12 Q1023 NOSIG
Observed
Sep-17 @ 00:20 UTC
Wind
  • 320° at 4 KTS
Visibility
10,000+ meters
Flight Rules
VFR
Cloud Levels
  • Few at 1,700' AGL
Temperature
14°C / 57°F
Dewpoint
12°C / 54°F
Humidity
88%
Altimeter
30.21" Hg
Pressure
1022.92 hPa
Previous

40 mins ago

EGLL 162350Z AUTO VRB03KT 9999 FEW017 BKN032 15/13 Q1023 NOSIG
Observed
Sep-16 @ 23:50 UTC
Wind
  • Variable at 3 KTS
Visibility
10,000+ meters
Flight Rules
VFR
Cloud Levels
  • Few at 1,700' AGL
  • Broken at 3,200' AGL
Temperature
15°C / 59°F
Dewpoint
13°C / 55°F
Humidity
88%
Altimeter
30.21" Hg
Pressure
1022.92 hPa
Previous

1 hour ago

EGLL 162320Z AUTO 36004KT 9999 BKN033 16/13 Q1023
Observed
Sep-16 @ 23:20 UTC
Wind
  • 360° at 4 KTS
Visibility
10,000+ meters
Flight Rules
VFR
Cloud Levels
  • Broken at 3,300' AGL
Temperature
16°C / 61°F
Dewpoint
13°C / 55°F
Humidity
83%
Altimeter
30.21" Hg
Pressure
1022.92 hPa